Time,TemperatureF,DewpointF,PressureIn,WindDirection,WindDirectionDegrees,WindSpeedMPH,WindSpeedGustMPH,Humidity,HourlyPrecipIn,Conditions,Clouds,dailyrainin,SoftwareType,DateUTC
2013-05-31 00:02:00,61.7,54.0,27.32,NW,315,0.0,1.6,76,-99.99,,,-99.99,WSDL version 420,2013-05-31 04:02:00,
2013-05-31 00:07:00,61.7,54.1,27.32,NW,315,0.0,1.6,76,-99.99,,,-99.99,WSDL version 420,2013-05-31 04:07:00,
2013-05-31 00:12:00,61.8,54.2,27.32,South,183,0.0,1.6,77,-99.99,,,-99.99,WSDL version 420,2013-05-31 04:12:00,
2013-05-31 00:17:00,61.7,54.3,27.32,SE,128,0.0,0.0,76,-99.99,,,-99.99,WSDL version 420,2013-05-31 04:17:00,
2013-05-31 00:22:00,61.7,54.1,27.32,SSE,158,0.0,0.0,77,-99.99,,,-99.99,WSDL version 420,2013-05-31 04:22:00,
2013-05-31 00:27:00,61.5,54.1,27.32,ESE,104,0.0,1.6,77,-99.99,,,-99.99,WSDL version 420,2013-05-31 04:27:00,
2013-05-31 00:32:00,61.5,54.5,27.32,SW,225,0.0,1.6,78,-99.99,,,-99.99,WSDL version 420,2013-05-31 04:32:00,
2013-05-31 00:37:00,61.6,54.6,27.32,WNW,301,0.6,2.2,78,-99.99,,,-99.99,WSDL version 420,2013-05-31 04:37:00,
2013-05-31 00:42:00,61.7,54.8,27.32,WSW,243,0.0,2.2,78,-99.99,,,-99.99,WSDL version 420,2013-05-31 04:42:00,
2013-05-31 00:47:00,61.7,54.7,27.32,ESE,104,0.0,1.1,78,-99.99,,,-99.99,WSDL version 420,2013-05-31 04:47:00,
2013-05-31 00:52:00,61.8,55.2,27.32,WSW,245,0.5,2.5,79,-99.99,,,-99.99,WSDL version 420,2013-05-31 04:52:00,
2013-05-31 00:57:00,61.9,55.0,27.32,SSW,208,0.0,2.5,78,-99.99,,,-99.99,WSDL version 420,2013-05-31 04:57:00,
2013-05-31 01:02:00,61.8,54.9,27.32,West,275,0.0,0.0,78,-99.99,,,-99.99,WSDL version 420,2013-05-31 05:02:00,
2013-05-31 01:07:00,61.9,55.0,27.32,SSW,193,0.0,0.0,78,-99.99,,,-99.99,WSDL version 420,2013-05-31 05:07:00,
2013-05-31 01:12:00,61.9,55.0,27.32,WNW,290,0.0,0.9,78,-99.99,,,-99.99,WSDL version 420,2013-05-31 05:12:00,
2013-05-31 01:17:00,61.9,55.0,27.32,South,175,0.0,0.9,78,-99.99,,,-99.99,WSDL version 420,2013-05-31 05:17:00,
2013-05-31 01:22:00,61.9,55.2,27.32,NW,304,0.0,0.0,78,-99.99,,,-99.99,WSDL version 420,2013-05-31 05:22:00,
2013-05-31 01:27:00,61.9,55.0,27.32,West,263,0.0,0.0,78,-99.99,,,-99.99,WSDL version 420,2013-05-31 05:27:00,
2013-05-31 01:32:00,61.9,55.0,27.32,West,270,0.0,0.0,78,-99.99,,,-99.99,WSDL version 420,2013-05-31 05:32:00,
2013-05-31 01:37:00,61.8,54.8,27.32,WSW,245,0.0,0.0,78,-99.99,,,-99.99,WSDL version 420,2013-05-31 05:37:00,
2013-05-31 01:42:00,61.7,54.8,27.32,WNW,293,0.0,0.0,78,-99.99,,,-99.99,WSDL version 420,2013-05-31 05:42:00,
2013-05-31 01:47:00,61.7,54.8,27.32,SW,230,0.0,0.0,78,-99.99,,,-99.99,WSDL version 420,2013-05-31 05:47:00,
2013-05-31 01:52:00,61.8,55.1,27.32,WSW,240,0.0,0.0,79,-99.99,,,-99.99,WSDL version 420,2013-05-31 05:52:00,
2013-05-31 01:57:00,61.9,55.1,27.32,SSW,203,0.0,0.0,78,-99.99,,,-99.99,WSDL version 420,2013-05-31 05:57:00,
2013-05-31 02:02:00,61.7,54.8,27.32,WNW,283,0.0,0.0,78,-99.99,,,-99.99,WSDL version 420,2013-05-31 06:02:00,
2013-05-31 02:07:00,61.7,55.2,27.32,West,270,0.0,0.0,79,-99.99,,,-99.99,WSDL version 420,2013-05-31 06:07:00,
2013-05-31 02:12:00,61.7,55.1,27.32,West,270,0.0,0.0,79,-99.99,,,-99.99,WSDL version 420,2013-05-31 06:12:00,
2013-05-31 02:17:00,61.7,55.1,27.32,West,273,0.0,0.0,79,-99.99,,,-99.99,WSDL version 420,2013-05-31 06:17:00,
2013-05-31 02:22:00,61.7,55.1,27.32,SSW,208,0.0,0.0,79,-99.99,,,-99.99,WSDL version 420,2013-05-31 06:22:00,
2013-05-31 02:27:00,61.6,55.1,27.32,West,268,0.0,1.6,80,-99.99,,,-99.99,WSDL version 420,2013-05-31 06:27:00,
2013-05-31 02:32:00,61.5,55.3,27.32,SE,141,0.0,1.6,80,-99.99,,,-99.99,WSDL version 420,2013-05-31 06:32:00,
2013-05-31 02:37:00,61.6,55.4,27.32,West,275,0.0,0.0,80,-99.99,,,-99.99,WSDL version 420,2013-05-31 06:37:00,
2013-05-31 02:42:00,61.7,55.4,27.32,West,270,0.0,0.0,80,-99.99,,,-99.99,WSDL version 420,2013-05-31 06:42:00,
2013-05-31 02:47:00,61.6,55.4,27.29,SW,225,0.0,0.0,80,-99.99,,,-99.99,WSDL version 420,2013-05-31 06:47:00,
2013-05-31 02:52:00,61.5,55.3,27.29,SSW,195,0.0,1.3,80,-99.99,,,-99.99,WSDL version 420,2013-05-31 06:52:00,
2013-05-31 02:57:00,61.6,55.7,27.29,SSE,160,0.0,2.5,80,-99.99,,,-99.99,WSDL version 420,2013-05-31 06:57:00,
2013-05-31 03:02:00,61.7,55.6,27.29,WSW,250,0.6,2.5,81,-99.99,,,-99.99,WSDL version 420,2013-05-31 07:02:00,
2013-05-31 03:07:00,61.7,55.9,27.29,WSW,250,0.0,2.0,81,-99.99,,,-99.99,WSDL version 420,2013-05-31 07:07:00,
2013-05-31 03:12:00,61.6,55.8,27.29,WNW,298,0.0,2.2,81,-99.99,,,-99.99,WSDL version 420,2013-05-31 07:12:00,
2013-05-31 03:17:00,61.9,56.3,27.32,SW,222,0.0,2.2,82,-99.99,,,-99.99,WSDL version 420,2013-05-31 07:17:00,
2013-05-31 03:22:00,62.1,56.3,27.32,West,280,0.0,1.6,81,-99.99,,,-99.99,WSDL version 420,2013-05-31 07:22:00,
2013-05-31 03:27:00,62.3,56.7,27.32,West,270,0.0,1.6,82,-99.99,,,-99.99,WSDL version 420,2013-05-31 07:27:00,
2013-05-31 03:32:00,62.6,56.7,27.29,WSW,248,0.0,0.9,81,-99.99,,,-99.99,WSDL version 420,2013-05-31 07:32:00,
2013-05-31 03:37:00,62.4,56.6,27.29,WNW,298,0.0,0.0,81,-99.99,,,-99.99,WSDL version 420,2013-05-31 07:37:00,
2013-05-31 03:42:00,62.5,56.6,27.29,East,90,0.0,0.9,81,-99.99,,,-99.99,WSDL version 420,2013-05-31 07:42:00,
2013-05-31 03:47:00,62.9,57.2,27.29,SW,220,0.0,1.3,82,-99.99,,,-99.99,WSDL version 420,2013-05-31 07:47:00,
2013-05-31 03:52:00,63.2,57.7,27.29,NW,309,0.0,1.3,82,-99.99,,,-99.99,WSDL version 420,2013-05-31 07:52:00,
2013-05-31 03:57:00,63.1,57.2,27.29,WNW,290,0.9,2.5,81,-99.99,,,-99.99,WSDL version 420,2013-05-31 07:57:00,
2013-05-31 04:02:00,62.8,56.9,27.29,NW,315,0.0,2.5,81,-99.99,,,-99.99,WSDL version 420,2013-05-31 08:02:00,
2013-05-31 04:07:00,62.6,56.6,27.29,WNW,298,0.0,1.6,81,-99.99,,,-99.99,WSDL version 420,2013-05-31 08:07:00,
2013-05-31 04:12:00,62.7,57.2,27.29,WNW,293,1.8,3.4,83,-99.99,,,-99.99,WSDL version 420,2013-05-31 08:12:00,
2013-05-31 04:17:00,62.9,57.4,27.29,NW,312,0.0,3.4,82,-99.99,,,-99.99,WSDL version 420,2013-05-31 08:17:00,
2013-05-31 04:22:00,63.0,57.3,27.29,NNW,335,0.6,2.5,82,-99.99,,,-99.99,WSDL version 420,2013-05-31 08:22:00,
2013-05-31 04:27:00,63.6,58.0,27.29,NW,321,0.4,2.5,82,-99.99,,,-99.99,WSDL version 420,2013-05-31 08:27:00,
2013-05-31 04:32:00,63.9,58.4,27.29,WNW,295,0.9,2.7,82,-99.99,,,-99.99,WSDL version 420,2013-05-31 08:32:00,
2013-05-31 04:37:00,64.2,58.6,27.29,WNW,293,1.4,2.7,82,-99.99,,,-99.99,WSDL version 420,2013-05-31 08:37:00,
2013-05-31 04:42:00,64.2,58.3,27.29,West,262,0.0,2.2,81,-99.99,,,-99.99,WSDL version 420,2013-05-31 08:42:00,
2013-05-31 04:47:00,64.3,58.4,27.29,NNW,333,0.0,1.6,81,-99.99,,,-99.99,WSDL version 420,2013-05-31 08:47:00,
2013-05-31 04:52:00,64.4,58.2,27.29,WNW,293,1.2,2.0,80,-99.99,,,-99.99,WSDL version 420,2013-05-31 08:52:00,
2013-05-31 04:57:00,64.4,58.1,27.29,WNW,293,1.2,2.0,80,-99.99,,,-99.99,WSDL version 420,2013-05-31 08:57:00,
2013-05-31 05:02:00,64.4,58.1,27.29,WNW,293,1.0,2.0,80,-99.99,,,-99.99,WSDL version 420,2013-05-31 09:02:00,
2013-05-31 05:07:00,64.4,58.1,27.29,WNW,293,1.1,1.6,80,-99.99,,,-99.99,WSDL version 420,2013-05-31 09:07:00,
2013-05-31 05:12:00,64.4,58.1,27.29,WNW,293,0.0,1.6,80,-99.99,,,-99.99,WSDL version 420,2013-05-31 09:12:00,
2013-05-31 05:17:00,64.3,58.0,27.29,WNW,293,0.0,1.3,80,-99.99,,,-99.99,WSDL version 420,2013-05-31 09:17:00,
2013-05-31 05:22:00,64.2,57.9,27.29,WNW,293,0.5,1.6,80,-99.99,,,-99.99,WSDL version 420,2013-05-31 09:22:00,
2013-05-31 05:27:00,64.0,57.8,27.29,WNW,293,0.0,1.6,80,-99.99,,,-99.99,WSDL version 420,2013-05-31 09:27:00,
2013-05-31 05:32:00,63.8,57.5,27.29,West,278,0.0,0.0,80,-99.99,,,-99.99,WSDL version 420,2013-05-31 09:32:00,
2013-05-31 05:37:00,63.5,57.5,27.29,West,270,0.0,0.0,81,-99.99,,,-99.99,WSDL version 420,2013-05-31 09:37:00,
2013-05-31 05:42:00,63.2,57.3,27.29,SSW,203,0.0,0.0,81,-99.99,,,-99.99,WSDL version 420,2013-05-31 09:42:00,
2013-05-31 05:47:00,62.8,56.8,27.29,East,83,0.0,0.0,81,-99.99,,,-99.99,WSDL version 420,2013-05-31 09:47:00,
2013-05-31 05:52:00,62.5,56.8,27.29,SSW,203,0.0,0.0,82,-99.99,,,-99.99,WSDL version 420,2013-05-31 09:52:00,
2013-05-31 05:57:00,62.2,56.8,27.29,SSW,203,0.0,0.0,82,-99.99,,,-99.99,WSDL version 420,2013-05-31 09:57:00,
2013-05-31 06:02:00,61.9,56.4,27.29,ESE,113,0.0,0.0,82,-99.99,,,-99.99,WSDL version 420,2013-05-31 10:02:00,
2013-05-31 06:07:00,61.7,56.5,27.29,SSW,203,0.0,0.0,83,-99.99,,,-99.99,WSDL version 420,2013-05-31 10:07:00,
2013-05-31 06:12:00,61.6,56.5,27.29,SSW,203,0.0,0.0,83,-99.99,,,-99.99,WSDL version 420,2013-05-31 10:12:00,
2013-05-31 06:17:00,61.4,56.3,27.29,SSW,203,0.0,0.0,83,-99.99,,,-99.99,WSDL version 420,2013-05-31 10:17:00,
2013-05-31 06:22:00,61.3,56.3,27.29,SSE,158,0.0,0.0,83,-99.99,,,-99.99,WSDL version 420,2013-05-31 10:22:00,
2013-05-31 06:27:00,61.2,56.4,27.29,ESE,123,0.0,0.0,84,-99.99,,,-99.99,WSDL version 420,2013-05-31 10:27:00,
2013-05-31 06:32:00,61.0,56.3,27.29,ESE,113,0.0,0.0,84,-99.99,,,-99.99,WSDL version 420,2013-05-31 10:32:00,
2013-05-31 06:37:00,60.8,56.1,27.29,SE,127,0.0,0.0,86,-99.99,,,-99.99,WSDL version 420,2013-05-31 10:37:00,
2013-05-31 06:42:00,60.8,56.4,27.29,SW,225,0.0,0.0,86,-99.99,,,-99.99,WSDL version 420,2013-05-31 10:42:00,
2013-05-31 06:48:00,60.6,56.6,27.29,SW,225,0.0,0.0,87,-99.99,,,-99.99,WSDL version 420,2013-05-31 10:48:00,
2013-05-31 06:53:00,60.6,56.6,27.29,SW,225,0.0,0.0,87,-99.99,,,-99.99,WSDL version 420,2013-05-31 10:53:00,
2013-05-31 06:58:00,60.6,56.6,27.29,SW,225,0.0,0.0,87,-99.99,,,-99.99,WSDL version 420,2013-05-31 10:58:00,
2013-05-31 07:03:00,60.7,56.7,27.29,WSW,248,0.0,0.0,87,-99.99,,,-99.99,WSDL version 420,2013-05-31 11:03:00,
2013-05-31 07:08:00,60.8,56.8,27.29,WSW,248,0.0,0.0,87,-99.99,,,-99.99,WSDL version 420,2013-05-31 11:08:00,
2013-05-31 07:13:00,61.0,57.0,27.29,WSW,248,0.0,0.0,87,-99.99,,,-99.99,WSDL version 420,2013-05-31 11:13:00,
2013-05-31 07:18:00,61.1,57.2,27.32,WSW,248,0.0,0.0,88,-99.99,,,-99.99,WSDL version 420,2013-05-31 11:18:00,
2013-05-31 07:23:00,61.4,57.8,27.32,WSW,248,0.0,0.0,88,-99.99,,,-99.99,WSDL version 420,2013-05-31 11:23:00,
2013-05-31 07:28:00,61.7,57.7,27.32,West,270,0.0,0.0,87,-99.99,,,-99.99,WSDL version 420,2013-05-31 11:28:00,
2013-05-31 07:33:00,61.8,57.8,27.32,WNW,300,0.0,0.0,87,-99.99,,,-99.99,WSDL version 420,2013-05-31 11:33:00,
2013-05-31 07:38:00,62.0,58.0,27.32,WSW,245,0.0,2.5,87,-99.99,,,-99.99,WSDL version 420,2013-05-31 11:38:00,
2013-05-31 07:43:00,62.2,58.1,27.32,NNW,328,0.0,2.5,87,-99.99,,,-99.99,WSDL version 420,2013-05-31 11:43:00,
2013-05-31 07:48:00,62.7,58.5,27.32,West,270,0.0,0.0,86,-99.99,,,-99.99,WSDL version 420,2013-05-31 11:48:00,
2013-05-31 07:53:00,63.1,58.6,27.32,North,3,0.0,0.0,84,-99.99,,,-99.99,WSDL version 420,2013-05-31 11:53:00,
2013-05-31 07:58:00,63.6,58.6,27.32,NNW,338,0.0,1.6,83,-99.99,,,-99.99,WSDL version 420,2013-05-31 11:58:00,
2013-05-31 08:03:00,64.1,58.7,27.32,NNW,343,0.0,2.0,82,-99.99,,,-99.99,WSDL version 420,2013-05-31 12:03:00,
2013-05-31 08:08:00,64.5,58.5,27.32,WSW,253,0.6,2.7,81,-99.99,,,-99.99,WSDL version 420,2013-05-31 12:08:00,
2013-05-31 08:13:00,64.8,58.5,27.32,WSW,242,0.0,2.7,80,-99.99,,,-99.99,WSDL version 420,2013-05-31 12:13:00,
2013-05-31 08:18:00,65.1,58.8,27.32,WSW,248,0.0,0.0,80,-99.99,,,-99.99,WSDL version 420,2013-05-31 12:18:00,
2013-05-31 08:23:00,65.8,59.3,27.32,SSW,208,0.0,0.0,80,-99.99,,,-99.99,WSDL version 420,2013-05-31 12:23:00,
2013-05-31 08:28:00,66.3,59.4,27.32,West,281,0.0,2.2,78,-99.99,,,-99.99,WSDL version 420,2013-05-31 12:28:00,
2013-05-31 08:33:00,66.3,58.4,27.32,South,170,1.9,3.4,75,-99.99,,,-99.99,WSDL version 420,2013-05-31 12:33:00,
2013-05-31 08:38:00,66.2,58.1,27.32,SSW,194,0.1,3.4,75,-99.99,,,-99.99,WSDL version 420,2013-05-31 12:38:00,
2013-05-31 08:43:00,67.1,58.9,27.32,NW,310,1.3,2.7,75,-99.99,,,-99.99,WSDL version 420,2013-05-31 12:43:00,
2013-05-31 08:48:00,68.1,58.8,27.32,NW,318,0.0,2.2,71,-99.99,,,-99.99,WSDL version 420,2013-05-31 12:48:00,
2013-05-31 08:53:00,70.7,60.7,27.32,South,174,0.0,0.0,71,-99.99,,,-99.99,WSDL version 420,2013-05-31 12:53:00,
2013-05-31 08:58:00,73.0,62.0,27.32,WSW,248,0.6,2.7,64,-99.99,,,-99.99,WSDL version 420,2013-05-31 12:58:00,
2013-05-31 09:03:00,73.3,60.0,27.32,South,177,2.0,3.8,62,-99.99,,,-99.99,WSDL version 420,2013-05-31 13:03:00,
2013-05-31 09:08:00,74.0,59.9,27.32,NW,326,0.0,3.8,60,-99.99,,,-99.99,WSDL version 420,2013-05-31 13:08:00,
2013-05-31 09:13:00,76.3,59.2,27.32,WSW,256,0.6,4.5,54,-99.99,,,-99.99,WSDL version 420,2013-05-31 13:13:00,
2013-05-31 09:18:00,74.6,56.3,27.32,SSE,168,0.7,4.5,53,-99.99,,,-99.99,WSDL version 420,2013-05-31 13:18:00,
2013-05-31 09:23:00,75.4,56.6,27.32,SW,217,0.8,3.6,52,-99.99,,,-99.99,WSDL version 420,2013-05-31 13:23:00,
2013-05-31 09:28:00,77.4,57.4,27.32,WSW,245,0.7,3.6,52,-99.99,,,-99.99,WSDL version 420,2013-05-31 13:28:00,
2013-05-31 09:33:00,77.5,56.6,27.32,SSW,195,1.7,3.4,47,-99.99,,,-99.99,WSDL version 420,2013-05-31 13:33:00,
2013-05-31 09:38:00,75.6,54.7,27.32,NW,318,1.1,3.4,49,-99.99,,,-99.99,WSDL version 420,2013-05-31 13:38:00,
2013-05-31 09:43:00,75.4,54.7,27.32,ESE,104,1.2,3.6,49,-99.99,,,-99.99,WSDL version 420,2013-05-31 13:43:00,
2013-05-31 09:48:00,74.4,54.1,27.32,West,262,1.3,3.6,50,-99.99,,,-99.99,WSDL version 420,2013-05-31 13:48:00,
2013-05-31 09:53:00,74.8,54.6,27.32,West,281,0.7,2.9,50,-99.99,,,-99.99,WSDL version 420,2013-05-31 13:53:00,
2013-05-31 09:58:00,73.9,53.7,27.32,South,169,0.0,3.8,49,-99.99,,,-99.99,WSDL version 420,2013-05-31 13:58:00,
2013-05-31 10:03:00,74.0,54.4,27.32,South,190,0.1,3.8,51,-99.99,,,-99.99,WSDL version 420,2013-05-31 14:03:00,
2013-05-31 10:08:00,74.3,54.9,27.32,SE,135,0.8,2.5,51,-99.99,,,-99.99,WSDL version 420,2013-05-31 14:08:00,
2013-05-31 10:13:00,75.1,55.2,27.32,South,191,0.5,2.5,49,-99.99,,,-99.99,WSDL version 420,2013-05-31 14:13:00,
2013-05-31 10:18:00,76.1,56.2,27.32,SW,235,2.1,3.4,49,-99.99,,,-99.99,WSDL version 420,2013-05-31 14:18:00,
2013-05-31 10:23:00,75.8,55.1,27.32,NW,313,1.8,3.4,48,-99.99,,,-99.99,WSDL version 420,2013-05-31 14:23:00,
2013-05-31 10:28:00,75.1,54.5,27.32,WNW,288,0.7,3.4,49,-99.99,,,-99.99,WSDL version 420,2013-05-31 14:28:00,
2013-05-31 10:33:00,76.3,55.3,27.32,SE,138,1.2,2.9,47,-99.99,,,-99.99,WSDL version 420,2013-05-31 14:33:00,
2013-05-31 10:38:00,76.8,54.7,27.32,SSE,168,1.5,4.0,47,-99.99,,,-99.99,WSDL version 420,2013-05-31 14:38:00,
2013-05-31 10:43:00,77.9,55.6,27.32,ESE,121,0.7,4.0,46,-99.99,,,-99.99,WSDL version 420,2013-05-31 14:43:00,
2013-05-31 10:48:00,77.9,55.7,27.32,SE,132,1.7,3.8,45,-99.99,,,-99.99,WSDL version 420,2013-05-31 14:48:00,
2013-05-31 10:53:00,79.4,56.1,27.32,SE,138,0.4,3.8,45,-99.99,,,-99.99,WSDL version 420,2013-05-31 14:53:00,
2013-05-31 10:58:00,78.0,54.8,27.32,NNW,335,0.4,1.6,45,-99.99,,,-99.99,WSDL version 420,2013-05-31 14:58:00,
2013-05-31 11:03:00,76.2,54.2,27.32,SW,236,0.8,2.9,47,-99.99,,,-99.99,WSDL version 420,2013-05-31 15:03:00,
2013-05-31 11:08:00,75.4,53.4,27.32,West,262,0.3,2.9,48,-99.99,,,-99.99,WSDL version 420,2013-05-31 15:08:00,
2013-05-31 11:13:00,76.1,54.1,27.32,NW,323,0.0,2.9,47,-99.99,,,-99.99,WSDL version 420,2013-05-31 15:13:00,
2013-05-31 11:18:00,74.9,53.1,27.32,West,273,0.1,2.9,47,-99.99,,,-99.99,WSDL version 420,2013-05-31 15:18:00,
2013-05-31 11:23:00,75.5,54.5,27.32,West,270,2.0,3.6,49,-99.99,,,-99.99,WSDL version 420,2013-05-31 15:23:00,
2013-05-31 11:28:00,78.4,56.2,27.32,NNW,343,1.7,3.6,43,-99.99,,,-99.99,WSDL version 420,2013-05-31 15:28:00,
2013-05-31 11:33:00,79.1,54.7,27.32,West,278,1.4,2.9,44,-99.99,,,-99.99,WSDL version 420,2013-05-31 15:33:00,
2013-05-31 11:38:00,79.2,54.2,27.32,NW,313,2.5,5.6,42,-99.99,,,-99.99,WSDL version 420,2013-05-31 15:38:00,
2013-05-31 11:43:00,77.7,53.1,27.32,NE,39,1.0,5.6,42,-99.99,,,-99.99,WSDL version 420,2013-05-31 15:43:00,
2013-05-31 11:48:00,76.9,52.6,27.32,ESE,110,0.4,2.7,43,-99.99,,,-99.99,WSDL version 420,2013-05-31 15:48:00,
2013-05-31 11:53:00,78.0,54.6,27.32,SE,140,1.1,2.9,44,-99.99,,,-99.99,WSDL version 420,2013-05-31 15:53:00,
2013-05-31 11:58:00,79.2,54.0,27.32,WNW,293,2.3,4.9,43,-99.99,,,-99.99,WSDL version 420,2013-05-31 15:58:00,
2013-05-31 12:03:00,79.4,53.4,27.32,NNE,28,3.1,7.2,39,-99.99,,,-99.99,WSDL version 420,2013-05-31 16:03:00,
2013-05-31 12:08:00,78.1,52.3,27.32,West,267,2.0,7.2,42,-99.99,,,-99.99,WSDL version 420,2013-05-31 16:08:00,
2013-05-31 12:13:00,79.0,53.7,27.32,NE,39,0.6,4.0,41,-99.99,,,-99.99,WSDL version 420,2013-05-31 16:13:00,
2013-05-31 12:18:00,80.1,54.5,27.32,NW,318,2.2,3.6,42,-99.99,,,-99.99,WSDL version 420,2013-05-31 16:18:00,
2013-05-31 12:23:00,81.0,54.8,27.32,NE,48,1.8,3.6,36,-99.99,,,-99.99,WSDL version 420,2013-05-31 16:23:00,
2013-05-31 12:28:00,80.8,52.4,27.32,West,260,2.5,5.4,37,-99.99,,,-99.99,WSDL version 420,2013-05-31 16:28:00,
2013-05-31 12:33:00,79.7,51.5,27.32,NW,323,1.6,5.4,37,-99.99,,,-99.99,WSDL version 420,2013-05-31 16:33:00,
2013-05-31 12:38:00,79.9,52.6,27.32,SSW,205,2.1,3.4,40,-99.99,,,-99.99,WSDL version 420,2013-05-31 16:38:00,
2013-05-31 12:43:00,80.6,53.6,27.32,NNE,20,0.3,3.4,39,-99.99,,,-99.99,WSDL version 420,2013-05-31 16:43:00,
2013-05-31 12:48:00,79.0,52.1,27.32,NW,310,2.0,4.9,41,-99.99,,,-99.99,WSDL version 420,2013-05-31 16:48:00,
2013-05-31 12:53:00,78.4,53.3,27.32,NW,318,1.8,4.9,41,-99.99,,,-99.99,WSDL version 420,2013-05-31 16:53:00,
2013-05-31 12:58:00,79.2,53.1,27.32,NNW,328,2.1,5.4,40,-99.99,,,-99.99,WSDL version 420,2013-05-31 16:58:00,
2013-05-31 13:03:00,78.6,52.0,27.32,South,175,0.0,5.4,41,-99.99,,,-99.99,WSDL version 420,2013-05-31 17:03:00,
2013-05-31 13:08:00,78.0,52.0,27.32,WNW,287,2.0,4.7,41,-99.99,,,-99.99,WSDL version 420,2013-05-31 17:08:00,
2013-05-31 13:13:00,80.2,52.9,27.32,WNW,303,4.3,6.9,36,-99.99,,,-99.99,WSDL version 420,2013-05-31 17:13:00,
2013-05-31 13:18:00,79.8,51.4,27.29,East,82,1.2,6.9,38,-99.99,,,-99.99,WSDL version 420,2013-05-31 17:18:00,
2013-05-31 13:23:00,78.9,51.5,27.29,WSW,245,2.3,4.3,40,-99.99,,,-99.99,WSDL version 420,2013-05-31 17:23:00,
2013-05-31 13:28:00,79.0,52.2,27.29,NNW,343,1.6,5.6,40,-99.99,,,-99.99,WSDL version 420,2013-05-31 17:28:00,
2013-05-31 13:33:00,78.2,51.9,27.29,NNW,343,0.1,5.6,42,-99.99,,,-99.99,WSDL version 420,2013-05-31 17:33:00,
2013-05-31 13:38:00,78.6,53.1,27.29,NW,318,2.9,4.0,41,-99.99,,,-99.99,WSDL version 420,2013-05-31 17:38:00,
2013-05-31 13:43:00,79.8,53.9,27.29,NNW,328,2.5,4.0,41,-99.99,,,-99.99,WSDL version 420,2013-05-31 17:43:00,
2013-05-31 13:48:00,80.8,53.6,27.29,WNW,290,2.0,4.0,38,-99.99,,,-99.99,WSDL version 420,2013-05-31 17:48:00,
2013-05-31 13:53:00,79.4,51.4,27.29,NNE,31,1.7,4.0,38,-99.99,,,-99.99,WSDL version 420,2013-05-31 17:53:00,
2013-05-31 13:58:00,80.3,53.1,27.29,West,278,1.8,3.6,38,-99.99,,,-99.99,WSDL version 420,2013-05-31 17:58:00,
2013-05-31 14:03:00,82.5,54.3,27.29,ESE,115,0.5,4.3,38,-99.99,,,-99.99,WSDL version 420,2013-05-31 18:03:00,
2013-05-31 14:08:00,83.1,54.0,27.29,NE,40,1.6,4.3,34,-99.99,,,-99.99,WSDL version 420,2013-05-31 18:08:00,
2013-05-31 14:13:00,81.2,51.6,27.29,NW,310,2.8,7.2,36,-99.99,,,-99.99,WSDL version 420,2013-05-31 18:13:00,
2013-05-31 14:18:00,81.8,53.0,27.29,WNW,290,2.3,7.2,35,-99.99,,,-99.99,WSDL version 420,2013-05-31 18:18:00,
2013-05-31 14:23:00,81.1,51.5,27.29,NW,310,1.4,4.3,36,-99.99,,,-99.99,WSDL version 420,2013-05-31 18:23:00,
2013-05-31 14:28:00,82.1,52.4,27.29,North,360,2.7,4.9,35,-99.99,,,-99.99,WSDL version 420,2013-05-31 18:28:00,
2013-05-31 14:33:00,82.5,52.2,27.29,WNW,287,0.9,4.9,34,-99.99,,,-99.99,WSDL version 420,2013-05-31 18:33:00,
2013-05-31 14:38:00,81.9,52.4,27.29,NW,326,2.6,4.0,36,-99.99,,,-99.99,WSDL version 420,2013-05-31 18:38:00,
2013-05-31 14:43:00,80.3,51.2,27.29,NNE,15,1.0,4.0,38,-99.99,,,-99.99,WSDL version 420,2013-05-31 18:43:00,
2013-05-31 14:48:00,81.9,53.2,27.26,NW,321,2.2,4.3,36,-99.99,,,-99.99,WSDL version 420,2013-05-31 18:48:00,
2013-05-31 14:53:00,83.5,54.0,27.26,East,96,2.5,4.3,35,-99.99,,,-99.99,WSDL version 420,2013-05-31 18:53:00,
2013-05-31 14:58:00,82.7,52.4,27.26,ENE,73,1.8,4.3,35,-99.99,,,-99.99,WSDL version 420,2013-05-31 18:58:00,
2013-05-31 15:03:00,80.3,51.9,27.26,NNW,329,2.0,4.3,38,-99.99,,,-99.99,WSDL version 420,2013-05-31 19:03:00,
2013-05-31 15:08:00,82.3,54.7,27.26,NW,323,2.4,5.6,38,-99.99,,,-99.99,WSDL version 420,2013-05-31 19:08:00,
2013-05-31 15:13:00,83.7,53.9,27.26,SSW,196,2.6,6.3,36,-99.99,,,-99.99,WSDL version 420,2013-05-31 19:13:00,
2013-05-31 15:18:00,81.4,51.4,27.26,SW,223,0.7,6.3,36,-99.99,,,-99.99,WSDL version 420,2013-05-31 19:18:00,
2013-05-31 15:23:00,80.6,51.6,27.26,WNW,295,1.5,4.7,37,-99.99,,,-99.99,WSDL version 420,2013-05-31 19:23:00,
2013-05-31 15:28:00,83.2,54.0,27.26,West,273,2.1,3.4,36,-99.99,,,-99.99,WSDL version 420,2013-05-31 19:28:00,
2013-05-31 15:33:00,84.4,54.3,27.29,West,268,2.9,3.8,34,-99.99,,,-99.99,WSDL version 420,2013-05-31 19:33:00,
2013-05-31 15:38:00,84.6,52.8,27.29,NW,325,1.5,4.0,33,-99.99,,,-99.99,WSDL version 420,2013-05-31 19:38:00,
2013-05-31 15:43:00,83.2,51.4,27.29,NNW,338,2.6,5.4,34,-99.99,,,-99.99,WSDL version 420,2013-05-31 19:43:00,
2013-05-31 15:48:00,81.2,50.6,27.26,NNW,340,0.3,5.6,35,-99.99,,,-99.99,WSDL version 420,2013-05-31 19:48:00,
2013-05-31 15:53:00,82.1,51.7,27.26,NNW,343,1.5,5.6,35,-99.99,,,-99.99,WSDL version 420,2013-05-31 19:53:00,
2013-05-31 15:58:00,81.6,51.2,27.26,North,10,1.3,4.7,35,-99.99,,,-99.99,WSDL version 420,2013-05-31 19:58:00,
2013-05-31 16:03:00,80.7,51.3,27.26,North,360,1.6,4.7,37,-99.99,,,-99.99,WSDL version 420,2013-05-31 20:03:00,
2013-05-31 16:08:00,78.8,51.1,27.26,WNW,287,2.2,4.7,38,-99.99,,,-99.99,WSDL version 420,2013-05-31 20:08:00,
2013-05-31 16:13:00,79.8,50.6,27.26,SW,228,2.6,4.9,36,-99.99,,,-99.99,WSDL version 420,2013-05-31 20:13:00,
2013-05-31 16:18:00,79.8,51.1,27.26,SE,127,2.6,4.9,36,-99.99,,,-99.99,WSDL version 420,2013-05-31 20:18:00,
2013-05-31 16:23:00,79.4,49.9,27.26,South,191,3.2,5.8,36,-99.99,,,-99.99,WSDL version 420,2013-05-31 20:23:00,
2013-05-31 16:28:00,79.4,50.9,27.26,NNW,333,1.2,5.8,38,-99.99,,,-99.99,WSDL version 420,2013-05-31 20:28:00,
2013-05-31 16:33:00,79.7,50.7,27.26,NW,325,2.8,4.0,36,-99.99,,,-99.99,WSDL version 420,2013-05-31 20:33:00,
2013-05-31 16:38:00,78.0,49.5,27.26,NNW,338,2.7,4.3,37,-99.99,,,-99.99,WSDL version 420,2013-05-31 20:38:00,
2013-05-31 16:43:00,79.1,51.4,27.26,NE,55,1.4,4.3,38,-99.99,,,-99.99,WSDL version 420,2013-05-31 20:43:00,
2013-05-31 16:48:00,79.9,51.5,27.26,NNW,343,2.7,5.8,37,-99.99,,,-99.99,WSDL version 420,2013-05-31 20:48:00,
2013-05-31 16:53:00,80.4,51.1,27.26,North,355,1.6,5.8,36,-99.99,,,-99.99,WSDL version 420,2013-05-31 20:53:00,
2013-05-31 16:58:00,80.6,51.2,27.26,NW,323,3.0,4.0,35,-99.99,,,-99.99,WSDL version 420,2013-05-31 20:58:00,
2013-05-31 17:03:00,80.9,51.6,27.26,SE,125,0.8,3.8,37,-99.99,,,-99.99,WSDL version 420,2013-05-31 21:03:00,
2013-05-31 17:08:00,80.1,49.9,27.26,NE,45,0.5,3.6,35,-99.99,,,-99.99,WSDL version 420,2013-05-31 21:08:00,
2013-05-31 17:13:00,79.4,50.3,27.26,NNE,29,1.8,3.6,36,-99.99,,,-99.99,WSDL version 420,2013-05-31 21:13:00,
2013-05-31 17:18:00,79.7,51.5,27.26,West,270,0.9,3.4,38,-99.99,,,-99.99,WSDL version 420,2013-05-31 21:18:00,
2013-05-31 17:23:00,79.9,50.7,27.26,NW,315,1.6,4.9,37,-99.99,,,-99.99,WSDL version 420,2013-05-31 21:23:00,
2013-05-31 17:28:00,79.3,50.5,27.26,North,8,1.0,4.9,37,-99.99,,,-99.99,WSDL version 420,2013-05-31 21:28:00,
2013-05-31 17:33:00,79.2,50.8,27.26,NW,318,2.1,3.8,36,-99.99,,,-99.99,WSDL version 420,2013-05-31 21:33:00,
2013-05-31 17:38:00,79.2,50.8,27.26,NE,35,1.6,3.8,38,-99.99,,,-99.99,WSDL version 420,2013-05-31 21:38:00,
2013-05-31 17:43:00,79.3,51.1,27.26,WNW,300,2.6,4.9,38,-99.99,,,-99.99,WSDL version 420,2013-05-31 21:43:00,
2013-05-31 17:48:00,78.9,51.3,27.23,WNW,290,2.4,4.9,38,-99.99,,,-99.99,WSDL version 420,2013-05-31 21:48:00,
2013-05-31 17:53:00,77.5,49.5,27.23,NNW,343,3.2,4.3,38,-99.99,,,-99.99,WSDL version 420,2013-05-31 21:53:00,
2013-05-31 17:58:00,76.6,50.1,27.23,NNW,329,3.5,4.7,41,-99.99,,,-99.99,WSDL version 420,2013-05-31 21:58:00,
2013-05-31 18:03:00,76.9,51.0,27.26,ESE,103,2.0,4.7,41,-99.99,,,-99.99,WSDL version 420,2013-05-31 22:03:00,
2013-05-31 18:08:00,76.7,51.2,27.26,North,349,0.8,4.3,41,-99.99,,,-99.99,WSDL version 420,2013-05-31 22:08:00,
2013-05-31 18:13:00,76.3,51.4,27.26,WNW,295,2.1,5.6,42,-99.99,,,-99.99,WSDL version 420,2013-05-31 22:13:00,
2013-05-31 18:18:00,75.6,50.9,27.26,West,275,2.5,5.6,42,-99.99,,,-99.99,WSDL version 420,2013-05-31 22:18:00,
2013-05-31 18:23:00,75.2,51.1,27.26,North,8,1.8,4.7,43,-99.99,,,-99.99,WSDL version 420,2013-05-31 22:23:00,
2013-05-31 18:28:00,74.7,50.8,27.26,West,265,0.2,4.7,43,-99.99,,,-99.99,WSDL version 420,2013-05-31 22:28:00,
2013-05-31 18:33:00,74.6,51.2,27.26,NW,318,2.9,4.0,44,-99.99,,,-99.99,WSDL version 420,2013-05-31 22:33:00,
2013-05-31 18:38:00,74.7,51.6,27.26,South,188,1.0,4.3,45,-99.99,,,-99.99,WSDL version 420,2013-05-31 22:38:00,
2013-05-31 18:43:00,74.5,51.8,27.26,NNE,31,0.3,4.3,45,-99.99,,,-99.99,WSDL version 420,2013-05-31 22:43:00,
2013-05-31 18:48:00,74.3,51.6,27.26,North,353,1.8,4.3,45,-99.99,,,-99.99,WSDL version 420,2013-05-31 22:48:00,
2013-05-31 18:53:00,73.8,51.7,27.26,West,278,1.8,4.3,46,-99.99,,,-99.99,WSDL version 420,2013-05-31 22:53:00,
2013-05-31 18:58:00,73.5,51.5,27.26,NW,318,0.8,3.8,46,-99.99,,,-99.99,WSDL version 420,2013-05-31 22:58:00,
2013-05-31 19:03:00,73.3,51.8,27.26,NW,308,1.1,3.8,47,-99.99,,,-99.99,WSDL version 420,2013-05-31 23:03:00,
2013-05-31 19:08:00,73.1,51.7,27.26,WNW,284,1.5,3.8,47,-99.99,,,-99.99,WSDL version 420,2013-05-31 23:08:00,
2013-05-31 19:13:00,73.0,51.6,27.26,NW,326,0.7,3.1,47,-99.99,,,-99.99,WSDL version 420,2013-05-31 23:13:00,
2013-05-31 19:18:00,72.9,51.9,27.23,NW,315,1.3,3.1,48,-99.99,,,-99.99,WSDL version 420,2013-05-31 23:18:00,
2013-05-31 19:23:00,72.7,51.5,27.23,NW,307,1.5,2.9,48,-99.99,,,-99.99,WSDL version 420,2013-05-31 23:23:00,
2013-05-31 19:28:00,72.6,51.9,27.23,NW,308,1.4,3.4,48,-99.99,,,-99.99,WSDL version 420,2013-05-31 23:28:00,
2013-05-31 19:33:00,72.6,52.2,27.26,NW,315,0.0,3.4,49,-99.99,,,-99.99,WSDL version 420,2013-05-31 23:33:00,
2013-05-31 19:38:00,72.3,52.4,27.26,NNW,343,1.9,3.6,50,-99.99,,,-99.99,WSDL version 420,2013-05-31 23:38:00,
2013-05-31 19:43:00,72.0,52.4,27.26,North,349,0.0,3.6,51,-99.99,,,-99.99,WSDL version 420,2013-05-31 23:43:00,
2013-05-31 19:48:00,71.7,52.3,27.26,NNW,338,0.0,1.1,51,-99.99,,,-99.99,WSDL version 420,2013-05-31 23:48:00,
2013-05-31 19:53:00,71.5,52.4,27.26,NNW,340,0.3,2.0,52,-99.99,,,-99.99,WSDL version 420,2013-05-31 23:53:00,
2013-05-31 19:58:00,71.2,52.7,27.26,North,10,0.0,2.0,52,-99.99,,,-99.99,WSDL version 420,2013-05-31 23:58:00,
2013-05-31 20:03:00,71.0,52.7,27.26,NNW,329,0.0,1.1,53,-99.99,,,-99.99,WSDL version 420,2013-06-01 00:03:00,
2013-05-31 20:08:00,70.8,52.8,27.26,NNW,345,0.0,0.0,53,-99.99,,,-99.99,WSDL version 420,2013-06-01 00:08:00,
2013-05-31 20:13:00,70.6,52.9,27.26,NNW,335,0.0,0.0,53,-99.99,,,-99.99,WSDL version 420,2013-06-01 00:13:00,
2013-05-31 20:18:00,70.3,52.8,27.23,WNW,302,0.0,0.0,54,-99.99,,,-99.99,WSDL version 420,2013-06-01 00:18:00,
2013-05-31 20:23:00,70.0,53.1,27.23,NW,315,0.1,1.6,56,-99.99,,,-99.99,WSDL version 420,2013-06-01 00:23:00,
2013-05-31 20:28:00,69.9,53.4,27.23,North,354,0.0,1.6,56,-99.99,,,-99.99,WSDL version 420,2013-06-01 00:28:00,
2013-05-31 20:33:00,69.4,53.6,27.26,ESE,108,0.0,2.2,58,-99.99,,,-99.99,WSDL version 420,2013-06-01 00:33:00,
2013-05-31 20:38:00,68.8,53.7,27.26,West,280,0.0,2.2,59,-99.99,,,-99.99,WSDL version 420,2013-06-01 00:38:00,
2013-05-31 20:43:00,68.5,53.8,27.26,NE,39,0.1,1.3,60,-99.99,,,-99.99,WSDL version 420,2013-06-01 00:43:00,
2013-05-31 20:48:00,68.1,54.0,27.26,NW,315,0.0,1.3,61,-99.99,,,-99.99,WSDL version 420,2013-06-01 00:48:00,
2013-05-31 20:53:00,67.9,54.3,27.26,NNW,328,1.3,2.2,63,-99.99,,,-99.99,WSDL version 420,2013-06-01 00:53:00,
2013-05-31 20:58:00,67.8,54.6,27.26,NW,310,0.4,2.2,64,-99.99,,,-99.99,WSDL version 420,2013-06-01 00:58:00,
2013-05-31 21:03:00,67.6,54.5,27.26,North,6,1.0,2.9,64,-99.99,,,-99.99,WSDL version 420,2013-06-01 01:03:00,
2013-05-31 21:08:00,67.3,54.7,27.26,WSW,255,0.0,2.9,64,-99.99,,,-99.99,WSDL version 420,2013-06-01 01:08:00,
2013-05-31 21:13:00,67.1,54.3,27.26,ENE,60,0.0,0.0,64,-99.99,,,-99.99,WSDL version 420,2013-06-01 01:13:00,
2013-05-31 21:18:00,66.6,54.4,27.23,ESE,103,0.0,0.9,65,-99.99,,,-99.99,WSDL version 420,2013-06-01 01:18:00,
2013-05-31 21:23:00,66.1,54.1,27.23,ESE,105,0.0,0.9,66,-99.99,,,-99.99,WSDL version 420,2013-06-01 01:23:00,
2013-05-31 21:28:00,65.9,54.9,27.23,NNW,335,1.1,2.9,68,-99.99,,,-99.99,WSDL version 420,2013-06-01 01:28:00,
2013-05-31 21:33:00,65.7,54.7,27.26,WNW,293,0.0,2.9,68,-99.99,,,-99.99,WSDL version 420,2013-06-01 01:33:00,
2013-05-31 21:38:00,65.6,54.7,27.26,SSE,152,0.0,1.1,68,-99.99,,,-99.99,WSDL version 420,2013-06-01 01:38:00,
2013-05-31 21:43:00,65.3,55.0,27.26,West,265,0.9,1.6,70,-99.99,,,-99.99,WSDL version 420,2013-06-01 01:43:00,
2013-05-31 21:48:00,65.2,55.0,27.26,SW,228,0.0,1.6,71,-99.99,,,-99.99,WSDL version 420,2013-06-01 01:48:00,
2013-05-31 21:53:00,65.1,54.9,27.26,ENE,68,0.8,2.5,69,-99.99,,,-99.99,WSDL version 420,2013-06-01 01:53:00,
2013-05-31 21:58:00,64.8,54.9,27.26,NW,305,0.0,2.5,71,-99.99,,,-99.99,WSDL version 420,2013-06-01 01:58:00,
2013-05-31 22:03:00,64.7,54.7,27.26,SSW,194,0.0,1.1,70,-99.99,,,-99.99,WSDL version 420,2013-06-01 02:03:00,
2013-05-31 22:08:00,64.5,54.9,27.26,East,90,0.5,2.0,71,-99.99,,,-99.99,WSDL version 420,2013-06-01 02:08:00,
2013-05-31 22:13:00,64.3,54.7,27.26,ESE,113,0.9,2.0,71,-99.99,,,-99.99,WSDL version 420,2013-06-01 02:13:00,
2013-05-31 22:18:00,64.3,55.2,27.26,East,100,0.0,2.5,72,-99.99,,,-99.99,WSDL version 420,2013-06-01 02:18:00,
2013-05-31 22:23:00,64.5,55.6,27.26,ENE,73,0.0,2.9,73,-99.99,,,-99.99,WSDL version 420,2013-06-01 02:23:00,
2013-05-31 22:28:00,64.4,55.7,27.26,West,278,0.0,2.9,73,-99.99,,,-99.99,WSDL version 420,2013-06-01 02:28:00,
2013-05-31 22:33:00,65.2,56.4,27.26,North,350,0.8,2.7,73,-99.99,,,-99.99,WSDL version 420,2013-06-01 02:33:00,
2013-05-31 22:38:00,66.2,56.8,27.26,NNW,329,1.0,2.7,71,-99.99,,,-99.99,WSDL version 420,2013-06-01 02:38:00,
2013-05-31 22:43:00,66.4,56.7,27.26,North,355,1.3,3.4,70,-99.99,,,-99.99,WSDL version 420,2013-06-01 02:43:00,
2013-05-31 22:48:00,66.5,56.5,27.26,North,357,1.0,3.4,70,-99.99,,,-99.99,WSDL version 420,2013-06-01 02:48:00,
2013-05-31 22:53:00,66.8,56.5,27.26,North,354,0.7,3.6,69,-99.99,,,-99.99,WSDL version 420,2013-06-01 02:53:00,
2013-05-31 22:58:00,67.0,56.5,27.26,NNE,13,1.0,3.6,69,-99.99,,,-99.99,WSDL version 420,2013-06-01 02:58:00,
2013-05-31 23:03:00,66.4,55.7,27.26,East,82,0.8,3.1,69,-99.99,,,-99.99,WSDL version 420,2013-06-01 03:03:00,
2013-05-31 23:08:00,66.0,55.7,27.26,NNE,23,0.0,3.1,69,-99.99,,,-99.99,WSDL version 420,2013-06-01 03:08:00,
2013-05-31 23:13:00,65.6,55.7,27.26,South,188,0.0,2.2,71,-99.99,,,-99.99,WSDL version 420,2013-06-01 03:13:00,
2013-05-31 23:18:00,65.4,55.5,27.26,ESE,121,0.0,2.0,70,-99.99,,,-99.99,WSDL version 420,2013-06-01 03:18:00,
2013-05-31 23:23:00,65.2,55.1,27.26,SW,228,0.0,1.3,70,-99.99,,,-99.99,WSDL version 420,2013-06-01 03:23:00,
2013-05-31 23:28:00,64.9,55.0,27.26,North,350,0.0,0.0,70,-99.99,,,-99.99,WSDL version 420,2013-06-01 03:28:00,
2013-05-31 23:33:00,64.5,54.8,27.26,SE,130,0.0,0.0,71,-99.99,,,-99.99,WSDL version 420,2013-06-01 03:33:00,
2013-05-31 23:38:00,64.3,55.2,27.26,NNW,335,0.0,1.3,74,-99.99,,,-99.99,WSDL version 420,2013-06-01 03:38:00,
2013-05-31 23:43:00,64.2,55.1,27.26,SSW,211,0.0,1.3,72,-99.99,,,-99.99,WSDL version 420,2013-06-01 03:43:00,
2013-05-31 23:48:00,64.1,55.7,27.26,NE,51,1.4,2.5,74,-99.99,,,-99.99,WSDL version 420,2013-06-01 03:48:00,
2013-05-31 23:53:00,64.1,55.6,27.26,SW,228,0.0,2.5,74,-99.99,,,-99.99,WSDL version 420,2013-06-01 03:53:00,
2013-05-31 23:58:00,64.0,55.4,27.26,West,281,0.0,0.9,74,-99.99,,,-99.99,WSDL version 420,2013-06-01 03:58:00,